| time (UTC) | temp F | wind direction | speed MPH | gust MPH | rain 1hr in | rain 24hr in | rain mn in | humidity % | barometer mb |
| 20260906083720 | 73 | 82 | 8.0 | 6.0 | 0.00 | 0.00 | 0.00 | 32 | 1025.3 |
| 20260906082720 | 72 | 84 | 5.0 | 8.0 | 0.00 | 0.00 | 0.00 | 33 | 1025.3 |
| 20260906081720 | 71 | 174 | 6.0 | 8.0 | 0.00 | 0.00 | 0.00 | 36 | 1025.3 |
| 20260906080720 | 71 | 112 | 5.0 | 6.0 | 0.00 | 0.00 | 0.00 | 38 | 1025.3 |
| 20260906075720 | 70 | 119 | 6.0 | 6.0 | 0.00 | 0.00 | 0.00 | 40 | 1025.3 |
| 20260906074720 | 69 | 140 | 6.0 | 9.0 | 0.00 | 0.00 | 0.00 | 41 | 1025.3 |
| 20260906073720 | 69 | 139 | 5.0 | 10.0 | 0.00 | 0.00 | 0.00 | 44 | 1025.3 |
| 20260906072720 | 68 | 191 | 8.0 | 9.0 | 0.00 | 0.00 | 0.00 | 44 | 1025.3 |
| 20260906071720 | 67 | 190 | 8.0 | 6.0 | 0.00 | 0.00 | 0.00 | 47 | 1025.3 |
| 20260906070720 | 67 | 60 | 5.0 | 6.0 | 0.00 | 0.00 | 0.00 | 54 | 1025.3 |
| 20260906065720 | 66 | 146 | 8.0 | 12.0 | 0.00 | 0.00 | 0.00 | 61 | 1025.3 |
| 20260906064720 | 65 | 164 | 8.0 | 10.0 | 0.00 | 0.00 | 0.00 | 77 | 1025.3 |
| 20260906063720 | 65 | 146 | 3.0 | 3.0 | 0.00 | 0.00 | 0.00 | 92 | 1025.3 |
| 20260906062720 | 64 | 97 | 6.0 | 6.0 | 0.00 | 0.00 | 0.00 | 94 | 1025.3 |
| 20260906061720 | 62 | 357 | 4.0 | 4.0 | 0.00 | 0.00 | 0.00 | 95 | 1025.3 |
| 20260906060720 | 61 | 357 | 2.0 | 3.0 | 0.00 | 0.00 | 0.00 | 94 | 1025.3 |
| 20260906055720 | 60 | 317 | 0.0 | 0.0 | 0.00 | 0.00 | 0.00 | 94 | 1024.3 |
| 20260906051720 | 58 | 95 | 2.0 | 4.0 | 0.00 | 0.00 | 0.00 | 93 | 1025.3 |
| 20260906043720 | 58 | 300 | 0.0 | 0.0 | 0.00 | 0.00 | 0.00 | 92 | 1024.3 |
| 20260906042720 | 58 | 299 | 0.0 | 0.0 | 0.00 | 0.00 | 0.00 | 92 | 1024.3 |
| 20260906041720 | 58 | 5 | 0.0 | 0.0 | 0.00 | 0.00 | 0.00 | 92 | 1023.3 |
| 20260906033720 | 59 | 297 | 0.0 | 0.0 | 0.00 | 0.00 | 0.00 | 91 | 1023.3 |
| 20260906032720 | 59 | 235 | 0.0 | 0.0 | 0.00 | 0.00 | 0.00 | 91 | 1023.3 |
| 20260906031740 | 59 | 234 | 0.0 | 0.0 | 0.00 | 0.00 | 0.00 | 92 | 1023.3 |
| 20260906023720 | 60 | 317 | 0.0 | 0.0 | 0.00 | 0.00 | 0.00 | 92 | 1023.3 |
| 20260906022720 | 60 | 330 | 3.0 | 2.0 | 0.00 | 0.00 | 0.00 | 91 | 1023.3 |
| 20260906021720 | 60 | 306 | 0.0 | 0.0 | 0.00 | 0.00 | 0.00 | 90 | 1023.3 |
| 20260906020720 | 60 | 231 | 0.0 | 0.0 | 0.00 | 0.00 | 0.00 | 90 | 1023.3 |
| 20260906015720 | 60 | 343 | 0.0 | 0.0 | 0.00 | 0.00 | 0.00 | 90 | 1023.3 |
| 20260906014720 | 60 | 343 | 0.0 | 0.0 | 0.00 | 0.00 | 0.00 | 90 | 1022.3 |
| 20260906010720 | 60 | 304 | 0.0 | 0.0 | 0.00 | 0.00 | 0.00 | 90 | 1022.3 |
| 20260906005720 | 60 | 304 | 0.0 | 0.0 | 0.00 | 0.00 | 0.00 | 90 | 1022.3 |
| 20260906004720 | 60 | 251 | 0.0 | 0.0 | 0.00 | 0.00 | 0.00 | 90 | 1023.3 |
| 20260906003720 | 60 | 234 | 0.0 | 3.0 | 0.00 | 0.00 | 0.00 | 89 | 1023.3 |
| 20260906002720 | 60 | 270 | 0.0 | 0.0 | 0.00 | 0.00 | 0.00 | 88 | 1022.3 |
| 20260906001720 | 61 | 271 | 0.0 | 0.0 | 0.00 | 0.00 | 0.00 | 88 | 1022.3 |
| 20260906000720 | 61 | 314 | 0.0 | 0.0 | 0.00 | 0.00 | 0.00 | 88 | 1022.3 |
| 20260905235720 | 61 | 353 | 0.0 | 3.0 | 0.00 | 0.00 | 0.00 | 86 | 1022.3 |